首页
METAR-TAF:

METAR-TAF

机场 :

爱华隆机场, 澳大利亚

纬度: 38-02S, 经度: 144-29E, 海拔: 8米

当前天气观测

该预报发布于17分钟前的12:00 UTC
风速3节,风向西转西南
温度 12°C
湿度 100%
气压 1021 hPa
能见度10公里或以上

METAR: YMAV 091200Z AUTO 25003KT 9999 // NCD 12/12 Q1021 RF00.0/000.0

时间: 22:17 (12:17 UTC)

预报

该预报发布于1小时和27分钟前的10:50 UTC
预报有效从09日的 10点(UTC)到 10日的 12点(UTC)
风速5节,风向西
能见度10公里或以上
1500米以下无云,无积雨云
从 09日的 1700点(UTC)
风速5节,风向北转西北
能见度10公里或以上
1500米以下无云,无积雨云
从 10日的 0000点(UTC)
风速14节,风向西转西北
能见度10公里或以上
1500米以下无云,无积雨云
几率 30%
从 09日的 10点(UTC)到 09日的 18点(UTC)
能見度: 0300

TAF: YMAV 091050Z 0910/1012 26005KT CAVOK FM091700 34005KT CAVOK FM100000 30014KT CAVOK PROB30 0910/0918 0300 FG

超过4000个机场的气象观测和天气预报(METAR&TAF报告)。

可查询的气象台以黄色和红色小点在地图上表示。

将鼠标移到小点上方,可查看气象台名称。

然后点击查看天气观测和预报。

如需切换地图:点击带黑十字的绿色按钮放大地图;点击带横线的绿色按钮缩小地图;或者点击绿色箭头查看邻近地区的地图。


METAR-TAF: